createdAt,value
2024-02-19T00:00:56.569Z,74.00
2024-02-19T00:03:24.030Z,74.00
2024-02-19T00:05:53.763Z,73.80
2024-02-19T00:08:20.787Z,73.80
2024-02-19T00:10:48.740Z,73.80
2024-02-19T00:13:16.306Z,73.70
2024-02-19T00:15:43.830Z,73.80
2024-02-19T00:18:11.700Z,73.60
2024-02-19T00:20:38.917Z,73.40
2024-02-19T00:23:06.013Z,73.60
2024-02-19T00:25:33.185Z,73.50
2024-02-19T00:28:01.154Z,73.50
2024-02-19T00:30:28.414Z,73.50
2024-02-19T00:32:55.890Z,73.30
2024-02-19T00:35:23.175Z,73.20
2024-02-19T00:37:51.239Z,73.10
2024-02-19T00:40:20.426Z,73.20
2024-02-19T00:42:49.582Z,73.20
2024-02-19T00:45:16.758Z,73.10
2024-02-19T00:47:47.093Z,72.90
2024-02-19T00:50:14.249Z,73.10
2024-02-19T00:52:41.949Z,73.00
2024-02-19T00:55:09.866Z,73.00
2024-02-19T00:57:38.585Z,73.00
2024-02-19T01:00:09.397Z,72.90
2024-02-19T01:02:38.413Z,72.80
2024-02-19T01:05:06.422Z,72.80
2024-02-19T01:07:33.492Z,72.60
2024-02-19T01:10:00.538Z,72.40
2024-02-19T01:12:27.857Z,72.40
2024-02-19T01:14:55.021Z,72.30
2024-02-19T01:17:23.089Z,72.30
2024-02-19T01:19:50.417Z,72.40
2024-02-19T01:22:17.657Z,72.30
2024-02-19T01:24:46.408Z,72.30
2024-02-19T01:27:13.617Z,72.30
2024-02-19T01:29:40.686Z,72.10
2024-02-19T01:32:09.751Z,72.00
2024-02-19T01:34:37.620Z,72.10
2024-02-19T01:37:06.317Z,72.00
2024-02-19T01:39:34.541Z,71.90
2024-02-19T01:42:01.649Z,71.80
2024-02-19T01:44:28.985Z,71.90
2024-02-19T01:46:57.048Z,71.80
2024-02-19T01:49:24.674Z,71.70
2024-02-19T01:51:53.790Z,71.60
2024-02-19T01:54:20.913Z,71.50
2024-02-19T01:56:48.046Z,71.40
2024-02-19T01:59:18.120Z,71.30
2024-02-19T02:01:45.851Z,71.20
2024-02-19T02:04:14.368Z,71.10
2024-02-19T02:06:42.284Z,71.00
2024-02-19T02:09:10.155Z,71.00
2024-02-19T02:11:37.972Z,71.00
2024-02-19T02:14:05.213Z,70.90
2024-02-19T02:16:34.731Z,70.70
2024-02-19T02:19:01.976Z,70.50
2024-02-19T02:21:29.169Z,70.60
2024-02-19T02:23:56.185Z,70.40
2024-02-19T02:26:23.315Z,70.10
2024-02-19T02:28:50.469Z,70.90
2024-02-19T02:31:18.941Z,69.90
2024-02-19T02:33:46.447Z,69.80
2024-02-19T02:36:14.667Z,69.90
2024-02-19T02:38:43.172Z,69.60
2024-02-19T02:41:11.863Z,69.60
2024-02-19T02:43:38.941Z,69.50
2024-02-19T02:46:05.916Z,69.10
2024-02-19T02:48:33.052Z,69.30
2024-02-19T02:51:00.251Z,69.20
2024-02-19T02:53:28.363Z,69.10
2024-02-19T02:55:55.520Z,69.10
2024-02-19T02:58:22.603Z,69.00
2024-02-19T03:00:50.096Z,69.10
2024-02-19T03:03:18.288Z,68.90
2024-02-19T03:05:45.405Z,69.00
2024-02-19T03:08:12.483Z,68.90
2024-02-19T03:10:39.540Z,68.70
2024-02-19T03:13:06.770Z,68.90
2024-02-19T03:15:34.350Z,68.80
2024-02-19T03:18:02.104Z,68.70
2024-02-19T03:20:31.017Z,68.90
2024-02-19T03:22:58.625Z,68.90
2024-02-19T03:25:25.779Z,69.30
2024-02-19T03:27:53.305Z,69.90
2024-02-19T03:30:22.403Z,70.40
2024-02-19T03:32:49.880Z,70.90
2024-02-19T03:35:16.935Z,71.20
2024-02-19T03:37:44.119Z,72.50
2024-02-19T03:40:12.139Z,71.90
2024-02-19T03:42:40.298Z,72.20
2024-02-19T03:45:07.634Z,72.60
2024-02-19T03:47:36.253Z,72.90
2024-02-19T03:50:05.211Z,73.10
2024-02-19T03:52:32.592Z,73.30
2024-02-19T03:55:02.773Z,73.60
2024-02-19T03:57:30.304Z,73.90
2024-02-19T03:59:57.571Z,74.20
2024-02-19T04:02:25.443Z,74.30
2024-02-19T04:04:52.670Z,74.80
2024-02-19T04:07:27.449Z,75.00
2024-02-19T04:09:55.568Z,74.90
2024-02-19T04:12:22.921Z,75.00
2024-02-19T04:14:51.626Z,75.10
2024-02-19T04:17:18.909Z,75.00
2024-02-19T04:19:46.123Z,74.60
2024-02-19T04:22:13.264Z,75.00
2024-02-19T04:24:40.424Z,74.70
2024-02-19T04:27:09.333Z,74.90
2024-02-19T04:29:36.467Z,75.10
2024-02-19T04:32:05.378Z,75.00
2024-02-19T04:34:37.389Z,75.50
2024-02-19T04:37:07.954Z,74.80
2024-02-19T04:39:35.612Z,74.70
2024-02-19T04:42:03.565Z,74.70
2024-02-19T04:44:31.043Z,74.70
2024-02-19T04:46:59.405Z,74.80
2024-02-19T04:49:28.596Z,74.90
2024-02-19T04:51:57.628Z,74.90
2024-02-19T04:54:25.994Z,74.70
2024-02-19T04:56:54.464Z,74.70
2024-02-19T04:59:22.418Z,74.70
2024-02-19T05:01:52.165Z,74.60
2024-02-19T05:04:20.634Z,74.60
2024-02-19T05:06:47.922Z,74.10
2024-02-19T05:09:16.037Z,74.00
2024-02-19T05:11:44.426Z,74.00
2024-02-19T05:14:11.553Z,74.20
2024-02-19T05:16:38.835Z,74.30
2024-02-19T05:19:06.104Z,74.20
2024-02-19T05:21:34.421Z,74.00
2024-02-19T05:24:01.717Z,74.20
2024-02-19T05:26:28.855Z,74.40
2024-02-19T05:28:56.520Z,74.30
2024-02-19T05:31:37.915Z,74.40
2024-02-19T05:34:07.109Z,74.30
2024-02-19T05:36:35.107Z,74.20
2024-02-19T05:39:02.880Z,74.30
2024-02-19T05:41:29.949Z,74.40
2024-02-19T05:43:57.557Z,74.20
2024-02-19T05:46:24.750Z,74.30
2024-02-19T05:48:52.196Z,74.50
2024-02-19T05:51:19.475Z,74.60
2024-02-19T05:53:48.186Z,74.40
2024-02-19T05:56:15.497Z,74.70
2024-02-19T05:58:42.745Z,74.50
2024-02-19T06:01:09.969Z,74.60
2024-02-19T06:03:37.333Z,74.50
2024-02-19T06:06:05.103Z,74.70
2024-02-19T06:08:32.206Z,74.90
2024-02-19T06:11:01.010Z,74.60
2024-02-19T06:13:28.356Z,74.80
2024-02-19T06:15:56.013Z,74.70
2024-02-19T06:18:23.207Z,74.90
2024-02-19T06:20:50.279Z,74.90
2024-02-19T06:23:17.244Z,75.10
2024-02-19T06:25:45.721Z,74.90
2024-02-19T06:28:13.186Z,75.00
2024-02-19T06:30:40.901Z,75.20
2024-02-19T06:33:08.206Z,75.50
2024-02-19T06:35:35.384Z,75.50
2024-02-19T06:38:02.728Z,75.60
2024-02-19T06:40:30.241Z,75.70
2024-02-19T06:42:59.938Z,75.70
2024-02-19T06:45:28.185Z,76.70
2024-02-19T06:47:56.276Z,75.90
2024-02-19T06:50:24.444Z,76.00
2024-02-19T06:52:51.408Z,76.00
2024-02-19T06:55:31.754Z,76.10
2024-02-19T06:58:02.364Z,76.20
2024-02-19T07:00:29.472Z,76.50
2024-02-19T07:02:56.600Z,76.70
2024-02-19T07:05:24.020Z,77.70
2024-02-19T07:07:52.039Z,77.00
2024-02-19T07:10:20.382Z,77.00
2024-02-19T07:12:48.118Z,77.20
2024-02-19T07:15:16.250Z,77.10
2024-02-19T07:17:46.463Z,77.30
2024-02-19T07:20:14.283Z,77.40
2024-02-19T07:22:41.657Z,77.50
2024-02-19T07:25:16.925Z,77.80
2024-02-19T07:27:48.550Z,77.90
2024-02-19T07:30:17.226Z,78.00
2024-02-19T07:32:44.788Z,78.10
2024-02-19T07:35:12.109Z,78.10
2024-02-19T07:37:39.314Z,78.20
2024-02-19T07:40:08.212Z,78.30
2024-02-19T07:42:38.599Z,78.50
2024-02-19T07:45:09.619Z,78.50
2024-02-19T07:47:37.011Z,78.60
2024-02-19T07:50:04.633Z,78.70
2024-02-19T07:52:32.067Z,78.70
2024-02-19T07:55:00.073Z,78.80
2024-02-19T07:57:27.378Z,78.80
2024-02-19T07:59:54.944Z,78.90
2024-02-19T08:02:23.202Z,79.70
2024-02-19T08:04:50.577Z,78.90
2024-02-19T08:07:18.106Z,78.90
2024-02-19T08:09:46.936Z,78.90
2024-02-19T08:12:15.125Z,79.00
2024-02-19T08:14:44.073Z,79.10
2024-02-19T08:17:12.217Z,79.10
2024-02-19T08:19:39.270Z,79.10
2024-02-19T08:22:07.445Z,78.90
2024-02-19T08:24:34.927Z,78.70
2024-02-19T08:27:01.872Z,78.70
2024-02-19T08:29:30.461Z,78.60
2024-02-19T08:31:58.956Z,78.80
2024-02-19T08:34:26.158Z,78.70
2024-02-19T08:36:53.471Z,78.70
2024-02-19T08:39:20.554Z,78.40
2024-02-19T08:41:47.739Z,78.10
2024-02-19T08:44:16.377Z,78.10
2024-02-19T08:46:43.700Z,77.90
2024-02-19T08:49:12.753Z,77.50
2024-02-19T08:51:40.142Z,77.60
2024-02-19T08:54:07.890Z,77.60
2024-02-19T08:56:35.170Z,77.40
2024-02-19T08:59:05.128Z,77.30
2024-02-19T09:01:33.365Z,77.50
2024-02-19T09:04:00.873Z,78.40
2024-02-19T09:06:28.043Z,77.20
2024-02-19T09:08:55.118Z,77.30
2024-02-19T09:11:22.360Z,77.00
2024-02-19T09:13:50.501Z,76.90
2024-02-19T09:16:17.696Z,76.90
2024-02-19T09:18:45.230Z,77.10
2024-02-19T09:21:12.420Z,77.20
2024-02-19T09:23:39.964Z,77.10
2024-02-19T09:26:16.178Z,77.30
2024-02-19T09:28:45.262Z,77.60
2024-02-19T09:31:12.388Z,77.70
2024-02-19T09:33:39.763Z,78.00
2024-02-19T09:36:08.309Z,77.60
2024-02-19T09:38:35.531Z,77.60
2024-02-19T09:41:05.555Z,77.70
2024-02-19T09:43:33.132Z,77.70
2024-02-19T09:46:00.529Z,77.80
2024-02-19T09:48:28.759Z,77.60
2024-02-19T09:50:58.543Z,76.80
2024-02-19T09:53:29.637Z,76.60
2024-02-19T09:55:58.008Z,76.10
2024-02-19T09:58:25.971Z,76.00
2024-02-19T10:00:53.913Z,76.00
2024-02-19T10:03:21.140Z,76.10
2024-02-19T10:05:49.073Z,76.20
2024-02-19T10:08:18.546Z,76.40
2024-02-19T10:10:47.159Z,76.50
2024-02-19T10:13:15.358Z,76.70
2024-02-19T10:15:44.899Z,76.80
2024-02-19T10:18:16.773Z,77.10
2024-02-19T10:20:52.124Z,77.30
2024-02-19T10:23:24.008Z,77.30
2024-02-19T10:25:51.914Z,77.40
2024-02-19T10:28:21.823Z,77.30
2024-02-19T10:30:57.942Z,77.20
2024-02-19T10:33:26.491Z,77.50
2024-02-19T10:35:54.109Z,77.60
2024-02-19T10:38:21.259Z,77.90
2024-02-19T10:40:49.137Z,78.10
2024-02-19T10:43:19.352Z,78.10
2024-02-19T10:45:48.709Z,78.20
2024-02-19T10:48:17.902Z,78.20
2024-02-19T10:50:49.175Z,78.20
2024-02-19T10:53:17.781Z,78.20
2024-02-19T10:55:53.551Z,78.30
2024-02-19T10:58:26.882Z,78.60
2024-02-19T11:00:58.891Z,78.60
2024-02-19T11:03:26.279Z,78.40
2024-02-19T11:05:53.707Z,78.30
2024-02-19T11:08:22.863Z,78.10
2024-02-19T11:10:52.581Z,78.20
2024-02-19T11:13:23.292Z,78.40
2024-02-19T11:15:50.883Z,78.60
2024-02-19T11:18:19.723Z,78.40
2024-02-19T11:20:48.173Z,78.70
2024-02-19T11:23:18.803Z,78.70
2024-02-19T11:25:49.302Z,78.70
2024-02-19T11:28:16.773Z,78.80
2024-02-19T11:30:47.504Z,78.70
2024-02-19T11:33:14.693Z,78.70
2024-02-19T11:35:45.122Z,78.70
2024-02-19T11:38:12.346Z,78.60
2024-02-19T11:40:39.797Z,78.30
2024-02-19T11:43:07.285Z,78.10
2024-02-19T11:45:37.750Z,78.00
2024-02-19T11:48:06.489Z,77.90
2024-02-19T11:50:33.535Z,77.80
2024-02-19T11:53:02.226Z,77.60
2024-02-19T11:55:35.464Z,77.20
2024-02-19T11:58:06.925Z,77.20
2024-02-19T12:00:34.160Z,77.00
2024-02-19T12:03:01.915Z,76.90
2024-02-19T12:05:29.404Z,77.10
2024-02-19T12:07:57.141Z,77.20
2024-02-19T12:10:24.498Z,77.10
2024-02-19T12:12:55.520Z,77.20
2024-02-19T12:15:23.050Z,77.60
2024-02-19T12:17:50.501Z,77.50
2024-02-19T12:20:19.374Z,77.60
2024-02-19T12:22:46.815Z,77.20
2024-02-19T12:25:15.016Z,77.20
2024-02-19T12:27:42.761Z,76.80
2024-02-19T12:30:11.114Z,76.70
2024-02-19T12:32:40.483Z,76.60
2024-02-19T12:35:09.206Z,76.20
2024-02-19T12:37:37.061Z,76.00
2024-02-19T12:40:06.198Z,76.00
2024-02-19T12:42:33.793Z,75.80
2024-02-19T12:45:01.468Z,76.30
2024-02-19T12:47:28.796Z,76.50
2024-02-19T12:49:56.587Z,76.70
2024-02-19T12:52:27.615Z,77.10
2024-02-19T12:54:55.623Z,78.10
2024-02-19T12:57:23.478Z,77.40
2024-02-19T12:59:50.835Z,77.80
2024-02-19T13:02:18.309Z,77.50
2024-02-19T13:04:46.549Z,77.60
2024-02-19T13:07:16.379Z,77.70
2024-02-19T13:09:45.256Z,77.50
2024-02-19T13:12:13.908Z,77.90
2024-02-19T13:14:41.534Z,77.60
2024-02-19T13:17:13.892Z,77.30
2024-02-19T13:19:47.427Z,77.00
2024-02-19T13:22:17.764Z,76.90
2024-02-19T13:24:44.932Z,76.80
2024-02-19T13:27:13.567Z,76.90
2024-02-19T13:29:41.163Z,77.00
2024-02-19T13:32:09.768Z,76.80
2024-02-19T13:34:37.524Z,76.50
2024-02-19T13:37:07.721Z,76.50
2024-02-19T13:39:35.167Z,76.50
2024-02-19T13:42:02.367Z,76.40
2024-02-19T13:44:29.737Z,76.40
2024-02-19T13:46:56.808Z,76.60
2024-02-19T13:49:23.991Z,76.60
2024-02-19T13:51:51.220Z,76.50
2024-02-19T13:54:18.229Z,76.40
2024-02-19T13:56:45.399Z,76.20
2024-02-19T13:59:15.754Z,76.40
2024-02-19T14:01:43.326Z,76.60
2024-02-19T14:04:10.651Z,76.40
2024-02-19T14:06:38.068Z,76.40
2024-02-19T14:09:06.028Z,76.20
2024-02-19T14:11:34.090Z,75.80
2024-02-19T14:14:03.054Z,75.80
2024-02-19T14:16:31.786Z,75.60
2024-02-19T14:19:00.779Z,75.40
2024-02-19T14:21:29.596Z,75.50
2024-02-19T14:23:57.974Z,75.90
2024-02-19T14:26:26.686Z,76.10
2024-02-19T14:28:54.798Z,76.20
2024-02-19T14:31:22.305Z,77.30
2024-02-19T14:33:51.269Z,76.50
2024-02-19T14:36:21.723Z,76.70
2024-02-19T14:38:50.453Z,76.80
2024-02-19T14:41:17.968Z,76.90
2024-02-19T14:43:45.848Z,76.90
2024-02-19T14:46:13.301Z,76.90
2024-02-19T14:48:41.921Z,76.90
2024-02-19T14:51:09.247Z,76.90
2024-02-19T14:53:39.434Z,77.00
2024-02-19T14:56:10.462Z,77.00
2024-02-19T14:58:38.387Z,77.30
2024-02-19T15:01:07.278Z,77.10
2024-02-19T15:03:35.050Z,77.30
2024-02-19T15:06:02.350Z,78.10
2024-02-19T15:08:29.881Z,77.00
2024-02-19T15:10:57.292Z,77.00
2024-02-19T15:13:24.655Z,77.00
2024-02-19T15:15:52.023Z,77.10
2024-02-19T15:18:20.114Z,77.10
2024-02-19T15:20:48.991Z,77.00
2024-02-19T15:23:16.224Z,76.80
2024-02-19T15:25:45.206Z,76.70
2024-02-19T15:28:14.523Z,76.60
2024-02-19T15:30:42.406Z,76.30
2024-02-19T15:33:09.609Z,75.90
2024-02-19T15:35:38.270Z,75.70
2024-02-19T15:38:05.966Z,75.20
2024-02-19T15:40:34.209Z,75.20
2024-02-19T15:43:01.666Z,75.00
2024-02-19T15:45:31.443Z,74.90
2024-02-19T15:47:58.648Z,74.70
2024-02-19T15:50:25.678Z,74.60
2024-02-19T15:52:58.874Z,74.50
2024-02-19T15:55:33.104Z,74.10
2024-02-19T15:58:00.460Z,74.10
2024-02-19T16:00:31.024Z,74.00
2024-02-19T16:02:58.573Z,73.80
2024-02-19T16:05:25.811Z,73.80
2024-02-19T16:07:53.099Z,73.70
2024-02-19T16:10:21.492Z,73.60
2024-02-19T16:12:50.588Z,73.40
2024-02-19T16:15:17.837Z,73.10
2024-02-19T16:17:45.095Z,73.10
2024-02-19T16:20:12.527Z,73.20
2024-02-19T16:22:42.238Z,72.90
2024-02-19T16:25:11.344Z,73.00
2024-02-19T16:27:38.876Z,72.80
2024-02-19T16:30:10.729Z,72.60
2024-02-19T16:32:37.948Z,72.30
2024-02-19T16:35:05.610Z,72.30
2024-02-19T16:37:32.917Z,72.30
2024-02-19T16:40:01.927Z,72.00
2024-02-19T16:42:29.109Z,72.20
2024-02-19T16:44:56.381Z,72.30
2024-02-19T16:47:24.188Z,72.20
2024-02-19T16:49:51.423Z,72.20
2024-02-19T16:52:18.796Z,72.50
2024-02-19T16:54:46.141Z,72.60
2024-02-19T16:57:13.252Z,72.80
2024-02-19T16:59:40.405Z,72.90
2024-02-19T17:02:08.425Z,73.10
2024-02-19T17:04:35.688Z,73.20
2024-02-19T17:07:05.335Z,73.40
2024-02-19T17:09:36.523Z,73.50
2024-02-19T17:12:05.384Z,73.60
2024-02-19T17:14:32.701Z,74.60
2024-02-19T17:17:00.722Z,74.10
2024-02-19T17:19:28.240Z,74.30
2024-02-19T17:21:56.852Z,74.40
2024-02-19T17:24:24.260Z,74.50
2024-02-19T17:26:51.858Z,74.60
2024-02-19T17:29:20.976Z,74.60
2024-02-19T17:31:50.741Z,74.50
2024-02-19T17:34:18.821Z,74.50
2024-02-19T17:36:48.339Z,74.50
2024-02-19T17:39:16.192Z,74.40
2024-02-19T17:41:47.655Z,74.20
2024-02-19T17:44:15.232Z,74.20
2024-02-19T17:46:43.099Z,74.20
2024-02-19T17:49:12.681Z,74.20
2024-02-19T17:51:41.980Z,74.30
2024-02-19T17:54:10.566Z,74.30
2024-02-19T17:56:40.940Z,74.30
2024-02-19T17:59:12.537Z,74.30
2024-02-19T18:01:40.385Z,74.30
2024-02-19T18:04:07.614Z,74.40
2024-02-19T18:06:36.926Z,74.40
2024-02-19T18:09:05.142Z,74.50
2024-02-19T18:11:33.767Z,74.50
2024-02-19T18:14:01.811Z,74.40
2024-02-19T18:16:30.212Z,74.30
2024-02-19T18:18:59.515Z,74.30
2024-02-19T18:21:27.557Z,74.10
2024-02-19T18:23:56.421Z,74.10
2024-02-19T18:26:25.474Z,74.00
2024-02-19T18:28:53.239Z,74.10
2024-02-19T18:31:20.519Z,74.30
2024-02-19T18:33:47.684Z,74.30
2024-02-19T18:36:14.859Z,74.10
2024-02-19T18:38:44.165Z,74.20
2024-02-19T18:41:12.569Z,74.10
2024-02-19T18:43:39.632Z,74.10
2024-02-19T18:46:06.784Z,73.80
2024-02-19T18:48:36.614Z,73.70
2024-02-19T18:51:05.423Z,73.80
2024-02-19T18:53:34.518Z,73.90
2024-02-19T18:56:03.271Z,74.00
2024-02-19T18:58:30.648Z,74.00
2024-02-19T19:00:59.657Z,74.00
2024-02-19T19:03:28.516Z,74.00
2024-02-19T19:06:04.788Z,74.10
2024-02-19T19:08:34.518Z,74.00
2024-02-19T19:11:02.058Z,74.20
2024-02-19T19:13:32.212Z,73.90
2024-02-19T19:15:59.995Z,73.90
2024-02-19T19:18:27.339Z,73.90
2024-02-19T19:20:54.523Z,73.90
2024-02-19T19:23:21.847Z,73.80
2024-02-19T19:25:49.472Z,73.90
2024-02-19T19:28:17.774Z,73.90
2024-02-19T19:30:46.433Z,73.70
2024-02-19T19:33:15.689Z,73.70
2024-02-19T19:35:48.994Z,73.80
2024-02-19T19:38:17.298Z,73.70
2024-02-19T19:40:44.547Z,73.60
2024-02-19T19:43:11.783Z,73.70
2024-02-19T19:45:39.660Z,73.70
2024-02-19T19:48:07.305Z,73.50
2024-02-19T19:50:34.577Z,73.40
2024-02-19T19:53:01.799Z,73.60
2024-02-19T19:55:29.956Z,73.80
2024-02-19T19:57:59.707Z,74.20
2024-02-19T20:00:28.618Z,74.40
2024-02-19T20:02:57.469Z,74.60
2024-02-19T20:05:24.944Z,74.70
2024-02-19T20:07:52.522Z,74.60
2024-02-19T20:10:20.443Z,74.70
2024-02-19T20:12:51.859Z,74.80
2024-02-19T20:15:20.400Z,74.70
2024-02-19T20:17:47.542Z,74.70
2024-02-19T20:20:15.153Z,74.80
2024-02-19T20:22:42.599Z,74.80
2024-02-19T20:25:10.175Z,74.80
2024-02-19T20:27:37.469Z,74.80
2024-02-19T20:30:05.516Z,74.80
2024-02-19T20:32:33.594Z,74.80
2024-02-19T20:35:01.194Z,74.80
2024-02-19T20:37:28.544Z,74.60
2024-02-19T20:40:02.660Z,74.50
2024-02-19T20:42:31.531Z,74.70
2024-02-19T20:44:59.530Z,74.60
2024-02-19T20:47:29.773Z,74.60
2024-02-19T20:49:58.696Z,74.60
2024-02-19T20:52:26.149Z,74.60
2024-02-19T20:54:56.175Z,74.60
2024-02-19T20:57:26.400Z,74.70
2024-02-19T20:59:53.698Z,74.70
2024-02-19T21:02:21.735Z,74.60
2024-02-19T21:04:50.561Z,74.80
2024-02-19T21:07:18.033Z,74.70
2024-02-19T21:09:45.231Z,74.60
2024-02-19T21:12:12.411Z,74.60
2024-02-19T21:14:40.198Z,74.50
2024-02-19T21:17:07.714Z,74.60
2024-02-19T21:19:35.191Z,74.50
2024-02-19T21:22:02.783Z,74.50
2024-02-19T21:24:30.051Z,74.40
2024-02-19T21:26:59.963Z,74.30
2024-02-19T21:29:30.057Z,74.30
2024-02-19T21:31:57.981Z,74.20
2024-02-19T21:34:25.225Z,74.10
2024-02-19T21:36:54.550Z,74.10
2024-02-19T21:39:22.696Z,73.90
2024-02-19T21:41:50.794Z,73.80
2024-02-19T21:44:17.842Z,73.70
2024-02-19T21:46:44.987Z,73.70
2024-02-19T21:49:12.216Z,73.60
2024-02-19T21:51:41.924Z,73.60
2024-02-19T21:54:09.460Z,73.50
2024-02-19T21:56:36.954Z,73.50
2024-02-19T21:59:03.946Z,73.50
2024-02-19T22:01:32.008Z,73.60
2024-02-19T22:04:02.346Z,73.50
2024-02-19T22:06:31.818Z,73.50
2024-02-19T22:09:02.765Z,73.40
2024-02-19T22:11:29.915Z,73.40
2024-02-19T22:13:57.409Z,73.50
2024-02-19T22:16:24.638Z,73.50
2024-02-19T22:18:51.811Z,73.60
2024-02-19T22:21:19.317Z,73.70
2024-02-19T22:23:47.650Z,73.70
2024-02-19T22:26:15.030Z,73.90
2024-02-19T22:28:42.172Z,74.20
2024-02-19T22:31:10.369Z,74.60
2024-02-19T22:33:37.615Z,74.80
2024-02-19T22:36:05.028Z,75.10
2024-02-19T22:38:32.014Z,75.30
2024-02-19T22:40:59.675Z,75.40
2024-02-19T22:43:27.803Z,75.50
2024-02-19T22:45:55.199Z,75.60
2024-02-19T22:48:22.297Z,75.60
2024-02-19T22:50:49.654Z,75.50
2024-02-19T22:53:18.462Z,76.50
2024-02-19T22:55:45.922Z,75.50
2024-02-19T22:58:20.098Z,75.50
2024-02-19T23:00:54.648Z,75.40
2024-02-19T23:03:23.090Z,75.40
2024-02-19T23:05:51.461Z,75.40
2024-02-19T23:08:21.459Z,75.40
2024-02-19T23:10:48.897Z,75.30
2024-02-19T23:13:16.077Z,75.30
2024-02-19T23:15:43.823Z,75.30
2024-02-19T23:18:11.013Z,75.30
2024-02-19T23:20:38.295Z,75.30
2024-02-19T23:23:05.754Z,75.40
2024-02-19T23:25:34.162Z,75.50
2024-02-19T23:28:03.620Z,75.60
2024-02-19T23:30:31.216Z,75.60
2024-02-19T23:32:58.695Z,75.60
2024-02-19T23:35:27.656Z,75.60
2024-02-19T23:37:54.778Z,75.50
2024-02-19T23:40:23.239Z,75.60
2024-02-19T23:42:50.347Z,75.60
2024-02-19T23:45:17.712Z,75.60
2024-02-19T23:47:45.363Z,75.70
2024-02-19T23:50:12.636Z,75.80
2024-02-19T23:52:43.372Z,75.90
2024-02-19T23:55:14.025Z,76.80
2024-02-19T23:57:42.041Z,76.20
